YMAT weather

Mater Hospital Helipad
Brisbane, Queensland, Australia

Public forecast

Using degrees Celsius for public forecast. Weather courtesy of forecast.io.

METAR (pilot weather report)

Closest report is Brisbane International Airport, 7.7 nm (14.3 km) NE. Retrieved 2019/02/18 13:30 UTC (24 minutes ago):

YBBN 181330Z 09005KT 9999 FEW025 24/19 Q1010 FM1430 19005KT 9999 SCT025

TAF (pilot weather forecast)

Closest forecast is Brisbane International Airport, 7.7 nm (14.3 km) NE. Retrieved 2019/02/18 12:00 UTC (2 hours ago):

TAF YBBN 181108Z 1812/1918 10008KT 9999 FEW025 FM181500 19005KT 9999 SCT025 FM182300 13010KT 9999 FEW030 FM190100 06012KT CAVOK FM190900 09008KT 9999 FEW025 FM191400 18006KT 9999 SCT025